Relevés horaires Bierset (Belgique)


Relevés horaires à Bierset - Jeudi 07 Sept. 2017
Heure UTC1 Température [°C] Vent [km/h] Hum. [%] Pres.4 [hPa] Visi. [Km] Nébu. [octa] Préc.5 [mm] Cond.
2m. Res. Ros. Dir.2 Vit. Moy. Raf.3
23:00 14.7 13.9 10.4 SSO 13.0 13.0 20.4 75 1012(-2.2/3h) 15 7/8 -- --
22:00 14.7 14.1 10.3 SSO 11.1 13.0 20.4 75 1012.8(-1.7/3h) 15 6/8 -- --
21:00 14.5 13.7 10.2 SSO 13.0 13.0 18.5 75 1013.5(-1.2/3h) 15 7/8 -- --
20:00 14.8 14.5 10.6 SSO 9.3 9.3 13.0 76 1014.3(-0.8/3h) 15 7/8 -- --
19:00 14.8 14.5 10.9 SSO 9.3 11.1 16.7 77 1014.5(-1.0/3h) 15 7/8 -- --
18:00 15.0 14.7 11.3 SSO 9.3 14.8 18.5 79 1014.7(-1.2/3h) 15 7/8 0/12h
--
17:00 15.1 14.6 11.3 SSO 11.1 11.1 14.8 78 1015(-1.0/3h) 15 8/8 -- --
16:00 15.3 15.3 10.7 OSO 7.4 11.1 14.8 74 1015.4(-0.6/3h) 15 8/8 -- --
15:00 15.7 15.7 9.7 O 7.4 14.8 18.5 67 1015.9(-0.2/3h) 15 7/8 -- --
14:00 15.5 15.3 9.9 SO 9.3 14.8 18.5 69 1016(-0.5/3h) 15 8/8 -- --
13:00 16.0 15.5 10.1 OSO 13.0 13.0 18.5 68 1016(-1.2/3h) 15 7/8 -- --
12:00 16.4 16 9.4 OSO 13.0 13.0 16.7 63 1016.1(-1.6/3h) 15 7/8 0/6h
--
11:00 17.5 17.5 9.8 OSO 11.1 11.1 16.7 61 1016.4(-1.2/3h) 15 4/8 -- --
10:00 16.5 16.5 9.7 SO 9.3 11.1 14.8 64 1017.2(-0.4/3h) 15 4/8 -- --
09:00 15.6 15.4 9.6 SO 9.3 9.3 14.8 67 1017.7(0.4/3h) 15 5/8 -- --
08:00 14.3 13.9 10.1 SO 9.3 9.3 13.0 76 1017.9(0.4/3h) 10 7/8 -- --
07:00 12.8 12.1 10.1 SO 9.3 9.3 14.8 84 1017.8(-0.2/3h) 10 7/8 -- --
06:00 12.7 12 10.6 SO 9.3 9.3 14.8 87 1017.6(-0.4/3h) 10 7/8 0/12h
--
05:00 12.5 12.1 10.5 SO 7.4 9.3 14.8 88 1017.5(-0.8/3h) 9 7/8 -- --
04:00 12.7 12.3 10.6 SO 7.4 9.3 14.8 87 1017.7(-0.9/3h) 10 7/8 -- --
03:00 12.8 12.4 10.5 SO 7.4 7.4 11.1 86 1018(-1.0/3h) 11 7/8 -- --
02:00 13.0 12.6 10.1 SO 7.4 7.4 11.1 83 1018.3(-0.9/3h) 12 7/8 -- --
01:00 13.1 13.1 9.4 SO 5.6 7.4 7.4 78 1018.5(-0.7/3h) 15 7/8 -- --
00:00 13.5 13.2 8.9 SO 7.4 9.3 11.1 74 1019.1(-0.3/3h) 17 7/8 0/6h
1.1/24h
--

1 Coordinated Universal Time. Actuellement il est 00:00 locale et 22:00 UTC.

2 Le vent souffle depuis la direction indiquée vers la direction oposée.

3 Les rafales max. sont disponible 40 min après l'heure du relevé.

4 Pour les stations d'altitude (plus de 600m) le géopotentiel du niveau le plus proche de la pression obligatoire est indiqué.

5 Les stations disposant d'un diffuseur peuvent indiquer "trace". Cela signifie que des précipitations ont touchés le sol mais que la quantité est inférieure à 0.1 mm.

Récapitulatif de la journée
Température [°C] Vent [km/h] Ensoleillement4 [h] Precipitations totale5 [mm] Pression [Hpa]
Min1 Max.2 Moy.3 Max. Min Max.
12.4 18.1 10.9 20.4 0 h 0 min 0 1012.0 1019.1

1 Température minimale relevée entre 18:00 UTC la veille et 18:00 UTC le jour donné.

2 Température maximale relevée entre 06:00 UTC le jour donné et 06:00 UTC le lendemain.

3 Vent moyen de la journée basé sur les relevés horaires.

4 Ensoleillement en heures relevé entre 06:00 UTC la veille et 06:00 UTC le jour donné.

5 Précipitations totales tombées entre 06:00 UTC la jour donné et 06:00 UTC le lendemain.

Graphiques horaires